createdAt,value
2022-12-20T00:00:47.630Z,1020.51
2022-12-20T00:01:47.892Z,1020.46
2022-12-20T00:02:47.987Z,1020.55
2022-12-20T00:03:48.146Z,1020.48
2022-12-20T00:04:48.330Z,1020.45
2022-12-20T00:05:48.515Z,1020.41
2022-12-20T00:06:48.677Z,1020.38
2022-12-20T00:07:48.836Z,1020.38
2022-12-20T00:08:49.005Z,1020.37
2022-12-20T00:09:49.187Z,1020.41
2022-12-20T00:10:49.364Z,1020.39
2022-12-20T00:11:49.544Z,1020.39
2022-12-20T00:12:49.721Z,1020.46
2022-12-20T00:13:49.884Z,1020.49
2022-12-20T00:14:50.065Z,1020.49
2022-12-20T00:15:50.252Z,1020.47
2022-12-20T00:16:50.428Z,1020.45
2022-12-20T00:17:50.687Z,1020.41
2022-12-20T00:18:50.801Z,1020.45
2022-12-20T00:19:50.923Z,1020.39
2022-12-20T00:20:51.110Z,1020.32
2022-12-20T00:21:51.274Z,1020.31
2022-12-20T00:22:51.455Z,1020.24
2022-12-20T00:23:51.637Z,1020.16
2022-12-20T00:24:51.804Z,1020.09
2022-12-20T00:25:51.986Z,1020.10
2022-12-20T00:26:52.167Z,1020.04
2022-12-20T00:27:52.341Z,1019.99
2022-12-20T00:28:52.513Z,1020.11
2022-12-20T00:29:52.694Z,1020.18
2022-12-20T00:30:52.875Z,1020.27
2022-12-20T00:31:53.091Z,1020.29
2022-12-20T00:32:53.234Z,1020.29
2022-12-20T00:33:53.404Z,1020.29
2022-12-20T00:34:53.582Z,1020.27
2022-12-20T00:35:53.761Z,1020.24
2022-12-20T00:36:53.934Z,1020.24
2022-12-20T00:37:54.110Z,1020.24
2022-12-20T00:38:54.283Z,1020.16
2022-12-20T00:39:54.458Z,1020.17
2022-12-20T00:40:54.645Z,1020.23
2022-12-20T00:41:54.795Z,1020.19
2022-12-20T00:42:54.956Z,1020.18
2022-12-20T00:43:55.142Z,1020.23
2022-12-20T00:44:55.313Z,1020.24
2022-12-20T00:45:55.501Z,1020.25
2022-12-20T00:46:55.724Z,1020.23
2022-12-20T00:47:55.825Z,1020.17
2022-12-20T00:48:56.008Z,1020.15
2022-12-20T00:49:56.174Z,1020.12
2022-12-20T00:50:56.383Z,1020.13
2022-12-20T00:51:56.510Z,1020.10
2022-12-20T00:52:56.674Z,1020.08
2022-12-20T00:53:56.861Z,1020.11
2022-12-20T00:54:57.009Z,1020.12
2022-12-20T00:55:57.184Z,1020.10
2022-12-20T00:56:57.355Z,1020.06
2022-12-20T00:57:57.534Z,1020.10
2022-12-20T00:58:57.691Z,1020.15
2022-12-20T00:59:57.874Z,1020.08
2022-12-20T01:00:58.181Z,1020.05
2022-12-20T01:01:58.340Z,1020.12
2022-12-20T01:02:58.528Z,1020.14
2022-12-20T01:03:58.563Z,1020.14
2022-12-20T01:04:58.738Z,1020.13
2022-12-20T01:05:58.911Z,1020.18
2022-12-20T01:06:59.098Z,1020.14
2022-12-20T01:07:59.271Z,1020.15
2022-12-20T01:08:59.447Z,1020.20
2022-12-20T01:09:59.619Z,1020.14
2022-12-20T01:10:59.827Z,1020.18
2022-12-20T01:11:59.944Z,1020.22
2022-12-20T01:13:00.136Z,1020.19
2022-12-20T01:14:00.304Z,1020.22
2022-12-20T01:15:00.472Z,1020.19
2022-12-20T01:16:00.751Z,1020.18
2022-12-20T01:17:00.904Z,1020.16
2022-12-20T01:18:00.988Z,1020.20
2022-12-20T01:19:01.174Z,1020.16
2022-12-20T01:20:01.344Z,1020.14
2022-12-20T01:21:01.528Z,1020.16
2022-12-20T01:22:01.679Z,1020.19
2022-12-20T01:23:01.868Z,1020.17
2022-12-20T01:24:02.038Z,1020.21
2022-12-20T01:25:02.210Z,1020.24
2022-12-20T01:26:02.425Z,1020.18
2022-12-20T01:27:02.564Z,1020.21
2022-12-20T01:28:02.751Z,1020.21
2022-12-20T01:29:02.909Z,1020.23
2022-12-20T01:30:03.107Z,1020.23
2022-12-20T01:31:03.270Z,1020.15
2022-12-20T01:32:03.478Z,1020.23
2022-12-20T01:33:03.645Z,1020.16
2022-12-20T01:34:03.789Z,1020.10
2022-12-20T01:35:03.978Z,1020.15
2022-12-20T01:36:04.171Z,1020.12
2022-12-20T01:37:04.339Z,1020.15
2022-12-20T01:38:04.487Z,1020.14
2022-12-20T01:39:04.673Z,1020.10
2022-12-20T01:40:04.875Z,1020.13
2022-12-20T01:41:05.050Z,1020.14
2022-12-20T01:42:05.184Z,1020.09
2022-12-20T01:43:05.347Z,1020.14
2022-12-20T01:44:05.516Z,1020.15
2022-12-20T01:45:05.698Z,1020.11
2022-12-20T01:46:05.938Z,1020.16
2022-12-20T01:47:06.034Z,1020.16
2022-12-20T01:48:06.219Z,1020.14
2022-12-20T01:49:06.400Z,1020.12
2022-12-20T01:50:06.553Z,1020.14
2022-12-20T01:51:06.731Z,1020.12
2022-12-20T01:52:06.903Z,1020.12
2022-12-20T01:53:07.068Z,1020.11
2022-12-20T01:54:07.247Z,1020.06
2022-12-20T01:55:07.403Z,1020.09
2022-12-20T01:56:07.591Z,1020.10
2022-12-20T01:57:07.750Z,1020.14
2022-12-20T01:58:07.920Z,1020.10
2022-12-20T01:59:08.109Z,1020.06
2022-12-20T02:00:08.266Z,1020.03
2022-12-20T02:01:08.565Z,1020.02
2022-12-20T02:02:08.844Z,1020.04
2022-12-20T02:03:08.875Z,1020.12
2022-12-20T02:04:08.974Z,1020.08
2022-12-20T02:05:09.186Z,1020.08
2022-12-20T02:06:09.376Z,1020.03
2022-12-20T02:07:09.551Z,1020.04
2022-12-20T02:08:09.726Z,1020.04
2022-12-20T02:09:09.889Z,1020.05
2022-12-20T02:10:10.043Z,1020.03
2022-12-20T02:11:10.236Z,1020.05
2022-12-20T02:12:10.402Z,1020.04
2022-12-20T02:13:10.593Z,1020.04
2022-12-20T02:14:10.744Z,1020.00
2022-12-20T02:15:10.915Z,1019.98
2022-12-20T02:16:11.187Z,1020.03
2022-12-20T02:17:11.348Z,1020.00
2022-12-20T02:18:11.470Z,1020.01
2022-12-20T02:19:11.632Z,1020.01
2022-12-20T02:20:11.839Z,1020.06
2022-12-20T02:21:11.975Z,1020.09
2022-12-20T02:22:12.152Z,1020.03
2022-12-20T02:23:12.314Z,1020.03
2022-12-20T02:24:12.496Z,1020.04
2022-12-20T02:25:12.676Z,1020.01
2022-12-20T02:26:12.847Z,1020.07
2022-12-20T02:27:12.981Z,1020.08
2022-12-20T02:28:13.181Z,1020.04
2022-12-20T02:29:13.335Z,1019.98
2022-12-20T02:30:13.515Z,1019.99
2022-12-20T02:31:13.685Z,1019.92
2022-12-20T02:32:13.937Z,1019.95
2022-12-20T02:33:14.076Z,1019.92
2022-12-20T02:34:14.252Z,1019.89
2022-12-20T02:35:14.412Z,1019.86
2022-12-20T02:36:14.620Z,1019.81
2022-12-20T02:37:14.813Z,1019.73
2022-12-20T02:38:14.970Z,1019.74
2022-12-20T02:39:15.144Z,1019.78
2022-12-20T02:40:15.288Z,1019.76
2022-12-20T02:41:15.468Z,1019.72
2022-12-20T02:42:15.668Z,1019.63
2022-12-20T02:43:15.822Z,1019.65
2022-12-20T02:44:16.001Z,1019.61
2022-12-20T02:45:16.223Z,1019.57
2022-12-20T02:46:16.437Z,1019.59
2022-12-20T02:47:16.528Z,1019.58
2022-12-20T02:48:16.684Z,1019.57
2022-12-20T02:49:16.850Z,1019.51
2022-12-20T02:50:17.055Z,1019.46
2022-12-20T02:51:17.233Z,1019.42
2022-12-20T02:52:17.390Z,1019.44
2022-12-20T02:53:17.561Z,1019.44
2022-12-20T02:54:17.734Z,1019.41
2022-12-20T02:55:17.917Z,1019.37
2022-12-20T02:56:18.091Z,1019.38
2022-12-20T02:57:18.273Z,1019.41
2022-12-20T02:58:18.460Z,1019.42
2022-12-20T02:59:18.611Z,1019.39
2022-12-20T03:00:18.788Z,1019.39
2022-12-20T03:01:19.117Z,1019.39
2022-12-20T03:02:19.327Z,1019.43
2022-12-20T03:03:19.334Z,1019.42
2022-12-20T03:04:19.471Z,1019.49
2022-12-20T03:05:19.656Z,1019.46
2022-12-20T03:06:19.845Z,1019.41
2022-12-20T03:07:19.987Z,1019.39
2022-12-20T03:08:20.188Z,1019.41
2022-12-20T03:09:20.329Z,1019.42
2022-12-20T03:10:20.492Z,1019.38
2022-12-20T03:11:25.136Z,1019.34
2022-12-20T03:12:20.848Z,1019.37
2022-12-20T03:13:21.030Z,1019.35
2022-12-20T03:14:21.198Z,1019.36
2022-12-20T03:15:21.334Z,1019.33
2022-12-20T03:16:21.596Z,1019.36
2022-12-20T03:17:21.666Z,1019.40
2022-12-20T03:18:21.857Z,1019.46
2022-12-20T03:19:22.018Z,1019.49
2022-12-20T03:20:22.175Z,1019.54
2022-12-20T03:21:22.358Z,1019.51
2022-12-20T03:22:22.526Z,1019.51
2022-12-20T03:23:22.687Z,1019.48
2022-12-20T03:24:22.880Z,1019.49
2022-12-20T03:25:23.027Z,1019.44
2022-12-20T03:26:23.222Z,1019.44
2022-12-20T03:27:23.354Z,1019.38
2022-12-20T03:28:23.519Z,1019.47
2022-12-20T03:29:23.690Z,1019.46
2022-12-20T03:30:23.887Z,1019.51
2022-12-20T03:31:24.077Z,1019.54
2022-12-20T03:32:24.210Z,1019.49
2022-12-20T03:33:24.384Z,1019.48
2022-12-20T03:34:24.545Z,1019.52
2022-12-20T03:35:24.747Z,1019.59
2022-12-20T03:36:24.896Z,1019.61
2022-12-20T03:37:25.046Z,1019.65
2022-12-20T03:38:25.227Z,1019.65
2022-12-20T03:39:25.398Z,1019.64
2022-12-20T03:40:25.608Z,1019.61
2022-12-20T03:41:25.815Z,1019.49
2022-12-20T03:42:25.917Z,1019.43
2022-12-20T03:43:26.084Z,1019.42
2022-12-20T03:44:26.291Z,1019.41
2022-12-20T03:45:26.423Z,1019.43
2022-12-20T03:46:26.644Z,1019.49
2022-12-20T03:47:26.785Z,1019.53
2022-12-20T03:48:26.984Z,1019.43
2022-12-20T03:49:27.141Z,1019.41
2022-12-20T03:50:27.313Z,1019.44
2022-12-20T03:51:27.514Z,1019.42
2022-12-20T03:52:27.656Z,1019.45
2022-12-20T03:53:27.826Z,1019.49
2022-12-20T03:54:28.011Z,1019.45
2022-12-20T03:55:28.163Z,1019.46
2022-12-20T03:56:28.348Z,1019.50
2022-12-20T03:57:28.477Z,1019.54
2022-12-20T03:58:28.649Z,1019.52
2022-12-20T03:59:28.815Z,1019.52
2022-12-20T04:00:29.006Z,1019.51
2022-12-20T04:01:29.342Z,1019.52
2022-12-20T04:02:29.577Z,1019.52
2022-12-20T04:03:29.529Z,1019.54
2022-12-20T04:04:29.649Z,1019.48
2022-12-20T04:05:29.826Z,1019.50
2022-12-20T04:06:30.016Z,1019.42
2022-12-20T04:07:30.183Z,1019.38
2022-12-20T04:08:30.391Z,1019.32
2022-12-20T04:09:30.518Z,1019.32
2022-12-20T04:10:30.742Z,1019.27
2022-12-20T04:11:30.880Z,1019.31
2022-12-20T04:12:31.044Z,1019.35
2022-12-20T04:13:31.208Z,1019.37
2022-12-20T04:14:31.363Z,1019.36
2022-12-20T04:15:31.597Z,1019.39
2022-12-20T04:16:31.773Z,1019.42
2022-12-20T04:17:31.883Z,1019.37
2022-12-20T04:18:32.065Z,1019.36
2022-12-20T04:19:32.228Z,1019.36
2022-12-20T04:20:32.423Z,1019.35
2022-12-20T04:21:32.617Z,1019.41
2022-12-20T04:22:32.783Z,1019.35
2022-12-20T04:23:32.943Z,1019.44
2022-12-20T04:24:33.131Z,1019.40
2022-12-20T04:25:33.294Z,1019.46
2022-12-20T04:26:33.481Z,1019.47
2022-12-20T04:27:33.655Z,1019.35
2022-12-20T04:28:33.844Z,1019.34
2022-12-20T04:29:34.004Z,1019.39
2022-12-20T04:30:34.192Z,1019.38
2022-12-20T04:31:34.418Z,1019.40
2022-12-20T04:32:34.508Z,1019.34
2022-12-20T04:33:34.669Z,1019.32
2022-12-20T04:34:34.834Z,1019.29
2022-12-20T04:35:35.007Z,1019.19
2022-12-20T04:36:35.195Z,1019.13
2022-12-20T04:37:35.380Z,1019.13
2022-12-20T04:38:35.554Z,1019.11
2022-12-20T04:39:35.743Z,1019.04
2022-12-20T04:40:35.903Z,1019.01
2022-12-20T04:41:36.070Z,1019.08
2022-12-20T04:42:36.273Z,1019.04
2022-12-20T04:43:36.439Z,1019.03
2022-12-20T04:44:36.599Z,1019.05
2022-12-20T04:45:36.785Z,1019.10
2022-12-20T04:46:37.028Z,1019.14
2022-12-20T04:47:37.114Z,1019.20
2022-12-20T04:48:55.663Z,1019.21
2022-12-20T04:49:38.467Z,1019.28
2022-12-20T04:50:37.706Z,1019.25
2022-12-20T04:51:37.845Z,1019.30
2022-12-20T04:52:42.146Z,1019.27
2022-12-20T04:53:39.192Z,1019.28
2022-12-20T04:54:38.360Z,1019.29
2022-12-20T04:55:38.534Z,1019.28
2022-12-20T04:56:38.712Z,1019.21
2022-12-20T04:57:38.892Z,1019.30
2022-12-20T04:58:39.057Z,1019.29
2022-12-20T04:59:39.210Z,1019.29
2022-12-20T05:00:39.391Z,1019.24
2022-12-20T05:01:39.694Z,1019.28
2022-12-20T05:02:39.832Z,1019.30
2022-12-20T05:03:39.919Z,1019.34
2022-12-20T05:04:40.032Z,1019.37
2022-12-20T05:05:40.207Z,1019.35
2022-12-20T05:06:40.403Z,1019.37
2022-12-20T05:07:40.556Z,1019.32
2022-12-20T05:08:40.702Z,1019.25
2022-12-20T05:09:40.871Z,1019.20
2022-12-20T05:10:41.046Z,1019.19
2022-12-20T05:11:41.254Z,1019.21
2022-12-20T05:12:41.388Z,1019.20
2022-12-20T05:13:41.540Z,1019.17
2022-12-20T05:14:41.717Z,1019.15
2022-12-20T05:15:41.945Z,1019.10
2022-12-20T05:16:42.112Z,1019.09
2022-12-20T05:17:42.234Z,1019.06
2022-12-20T05:18:48.506Z,1019.04
2022-12-20T05:19:43.580Z,1019.03
2022-12-20T05:20:42.766Z,1019.05
2022-12-20T05:21:42.941Z,1019.10
2022-12-20T05:22:43.102Z,1019.08
2022-12-20T05:23:43.285Z,1019.06
2022-12-20T05:24:43.440Z,1019.02
2022-12-20T05:25:43.611Z,1019.02
2022-12-20T05:26:43.800Z,1019.02
2022-12-20T05:27:43.967Z,1018.99
2022-12-20T05:28:44.156Z,1018.99
2022-12-20T05:29:44.329Z,1018.97
2022-12-20T05:30:44.491Z,1019.01
2022-12-20T05:31:44.775Z,1019.00
2022-12-20T05:32:44.839Z,1019.04
2022-12-20T05:33:45.012Z,1019.01
2022-12-20T05:34:45.199Z,1019.03
2022-12-20T05:35:45.368Z,1018.99
2022-12-20T05:36:45.551Z,1019.00
2022-12-20T05:37:45.715Z,1019.01
2022-12-20T05:38:45.905Z,1018.98
2022-12-20T05:39:46.073Z,1018.95
2022-12-20T05:40:46.262Z,1018.87
2022-12-20T05:41:46.394Z,1018.86
2022-12-20T05:42:46.570Z,1018.89
2022-12-20T05:43:46.749Z,1018.86
2022-12-20T05:44:46.909Z,1018.87
2022-12-20T05:45:47.108Z,1018.89
2022-12-20T05:46:47.362Z,1018.94
2022-12-20T05:47:47.401Z,1018.89
2022-12-20T05:48:47.583Z,1018.89
2022-12-20T05:49:47.754Z,1018.79
2022-12-20T05:50:47.942Z,1018.79
2022-12-20T05:51:48.078Z,1018.76
2022-12-20T05:52:48.261Z,1018.74
2022-12-20T05:53:48.413Z,1018.79
2022-12-20T05:54:48.599Z,1018.83
2022-12-20T05:55:48.745Z,1018.82
2022-12-20T05:56:48.976Z,1018.87
2022-12-20T05:57:49.105Z,1018.86
2022-12-20T05:58:49.281Z,1018.88
2022-12-20T05:59:49.453Z,1018.95
2022-12-20T06:00:49.650Z,1018.98
2022-12-20T06:01:49.887Z,1018.94
2022-12-20T06:02:50.118Z,1018.95
2022-12-20T06:03:50.246Z,1018.95
2022-12-20T06:04:50.324Z,1018.98
2022-12-20T06:05:50.481Z,1018.93
2022-12-20T06:06:50.666Z,1018.96
2022-12-20T06:07:50.813Z,1019.01
2022-12-20T06:08:50.989Z,1019.00
2022-12-20T06:09:51.170Z,1018.99
2022-12-20T06:10:51.368Z,1019.03
2022-12-20T06:11:51.500Z,1019.08
2022-12-20T06:12:51.717Z,1019.13
2022-12-20T06:13:51.827Z,1019.15
2022-12-20T06:14:51.999Z,1019.11
2022-12-20T06:15:52.256Z,1019.11
2022-12-20T06:16:52.406Z,1019.11
2022-12-20T06:17:52.561Z,1019.07
2022-12-20T06:18:52.733Z,1019.01
2022-12-20T06:19:52.916Z,1019.03
2022-12-20T06:20:53.087Z,1019.01
2022-12-20T06:21:53.290Z,1018.98
2022-12-20T06:22:53.449Z,1018.99
2022-12-20T06:23:53.642Z,1019.01
2022-12-20T06:24:53.806Z,1018.98
2022-12-20T06:25:54.051Z,1018.94
2022-12-20T06:26:54.153Z,1018.90
2022-12-20T06:27:54.322Z,1018.94
2022-12-20T06:28:54.505Z,1018.91
2022-12-20T06:29:54.746Z,1018.89
2022-12-20T06:30:54.869Z,1018.97
2022-12-20T06:31:55.053Z,1018.95
2022-12-20T06:32:55.155Z,1018.96
2022-12-20T06:33:55.343Z,1018.98
2022-12-20T06:34:55.510Z,1018.96
2022-12-20T06:35:55.665Z,1019.00
2022-12-20T06:36:55.845Z,1018.99
2022-12-20T06:37:56.030Z,1019.07
2022-12-20T06:38:56.207Z,1019.04
2022-12-20T06:39:56.384Z,1019.03
2022-12-20T06:40:56.555Z,1019.04
2022-12-20T06:41:56.724Z,1019.04
2022-12-20T06:42:56.887Z,1019.02
2022-12-20T06:43:57.056Z,1019.07
2022-12-20T06:44:57.237Z,1019.08
2022-12-20T06:45:57.448Z,1019.15
2022-12-20T06:46:57.587Z,1019.14
2022-12-20T06:47:57.766Z,1019.11
2022-12-20T06:48:57.938Z,1019.15
2022-12-20T06:49:58.124Z,1019.14
2022-12-20T06:50:58.301Z,1019.21
2022-12-20T06:51:58.494Z,1019.17
2022-12-20T06:52:58.638Z,1019.19
2022-12-20T06:53:58.818Z,1019.09
2022-12-20T06:54:58.983Z,1019.05
2022-12-20T06:55:59.152Z,1019.04
2022-12-20T06:56:59.327Z,1019.00
2022-12-20T06:57:59.474Z,1019.07
2022-12-20T06:58:59.668Z,1019.04
2022-12-20T06:59:59.854Z,1019.08
2022-12-20T07:01:00.060Z,1019.12
2022-12-20T07:02:00.441Z,1019.12
2022-12-20T07:03:00.405Z,1019.12
2022-12-20T07:04:00.535Z,1019.10
2022-12-20T07:05:00.697Z,1019.13
2022-12-20T07:06:00.868Z,1019.06
2022-12-20T07:07:01.062Z,1019.13
2022-12-20T07:08:01.182Z,1019.11
2022-12-20T07:09:01.365Z,1019.11
2022-12-20T07:10:01.557Z,1019.12
2022-12-20T07:11:01.717Z,1019.16
2022-12-20T07:12:01.913Z,1019.17
2022-12-20T07:13:02.106Z,1019.18
2022-12-20T07:14:02.264Z,1019.16
2022-12-20T07:15:02.440Z,1019.22
2022-12-20T07:16:02.603Z,1019.19
2022-12-20T07:17:02.829Z,1019.24
2022-12-20T07:18:02.964Z,1019.28
2022-12-20T07:19:03.128Z,1019.24
2022-12-20T07:20:09.109Z,1019.27
2022-12-20T07:21:04.481Z,1019.27
2022-12-20T07:22:03.648Z,1019.26
2022-12-20T07:23:03.821Z,1019.26
2022-12-20T07:24:04.004Z,1019.30
2022-12-20T07:25:04.223Z,1019.29
2022-12-20T07:26:04.359Z,1019.29
2022-12-20T07:27:04.517Z,1019.31
2022-12-20T07:28:04.693Z,1019.30
2022-12-20T07:29:04.875Z,1019.26
2022-12-20T07:30:05.056Z,1019.27
2022-12-20T07:31:05.303Z,1019.26
2022-12-20T07:32:05.416Z,1019.31
2022-12-20T07:33:05.573Z,1019.31
2022-12-20T07:34:05.749Z,1019.30
2022-12-20T07:35:05.914Z,1019.31
2022-12-20T07:36:06.084Z,1019.30
2022-12-20T07:37:06.273Z,1019.28
2022-12-20T07:38:06.436Z,1019.34
2022-12-20T07:39:06.610Z,1019.35
2022-12-20T07:40:06.777Z,1019.40
2022-12-20T07:41:06.971Z,1019.35
2022-12-20T07:42:07.165Z,1019.41
2022-12-20T07:43:07.306Z,1019.42
2022-12-20T07:44:07.482Z,1019.41
2022-12-20T07:45:07.645Z,1019.42
2022-12-20T07:46:07.859Z,1019.42
2022-12-20T07:47:07.998Z,1019.38
2022-12-20T07:48:13.769Z,1019.42
2022-12-20T07:49:09.332Z,1019.41
2022-12-20T07:50:08.512Z,1019.42
2022-12-20T07:51:08.692Z,1019.45
2022-12-20T07:52:08.890Z,1019.42
2022-12-20T07:53:09.077Z,1019.44
2022-12-20T07:54:09.213Z,1019.46
2022-12-20T07:55:09.367Z,1019.45
2022-12-20T07:56:09.542Z,1019.46
2022-12-20T07:57:09.734Z,1019.39
2022-12-20T07:58:09.919Z,1019.39
2022-12-20T07:59:10.102Z,1019.41
2022-12-20T08:00:10.258Z,1019.47
2022-12-20T08:01:10.486Z,1019.50
2022-12-20T08:02:10.770Z,1019.44
2022-12-20T08:03:10.969Z,1019.48
2022-12-20T08:04:11.081Z,1019.42
2022-12-20T08:05:11.116Z,1019.46
2022-12-20T08:06:11.299Z,1019.43
2022-12-20T08:07:11.480Z,1019.46
2022-12-20T08:08:11.664Z,1019.45
2022-12-20T08:09:11.860Z,1019.41
2022-12-20T08:10:11.977Z,1019.43
2022-12-20T08:11:12.156Z,1019.44
2022-12-20T08:12:12.343Z,1019.46
2022-12-20T08:13:12.515Z,1019.42
2022-12-20T08:14:12.707Z,1019.40
2022-12-20T08:15:12.899Z,1019.39
2022-12-20T08:16:13.138Z,1019.36
2022-12-20T08:17:13.310Z,1019.32
2022-12-20T08:18:13.477Z,1019.32
2022-12-20T08:19:13.639Z,1019.35
2022-12-20T08:20:13.855Z,1019.34
2022-12-20T08:21:13.964Z,1019.31
2022-12-20T08:22:14.152Z,1019.31
2022-12-20T08:23:14.321Z,1019.27
2022-12-20T08:24:14.489Z,1019.30
2022-12-20T08:25:14.638Z,1019.31
2022-12-20T08:26:14.854Z,1019.26
2022-12-20T08:27:15.073Z,1019.24
2022-12-20T08:28:15.198Z,1019.25
2022-12-20T08:29:15.386Z,1019.22
2022-12-20T08:30:15.563Z,1019.21
2022-12-20T08:31:15.855Z,1019.14
2022-12-20T08:32:15.923Z,1019.15
2022-12-20T08:33:16.128Z,1019.14
2022-12-20T08:34:16.284Z,1019.11
2022-12-20T08:35:16.491Z,1019.18
2022-12-20T08:36:16.655Z,1019.19
2022-12-20T08:37:16.827Z,1019.23
2022-12-20T08:38:16.997Z,1019.21
2022-12-20T08:39:17.183Z,1019.21
2022-12-20T08:40:17.362Z,1019.21
2022-12-20T08:41:17.528Z,1019.19
2022-12-20T08:42:17.712Z,1019.26
2022-12-20T08:43:17.858Z,1019.20
2022-12-20T08:44:18.019Z,1019.25
2022-12-20T08:45:18.197Z,1019.21
2022-12-20T08:46:18.465Z,1019.22
2022-12-20T08:47:18.567Z,1019.15
2022-12-20T08:48:18.734Z,1019.14
2022-12-20T08:49:18.908Z,1019.12
2022-12-20T08:50:19.098Z,1019.17
2022-12-20T08:51:19.275Z,1019.17
2022-12-20T08:52:19.427Z,1019.16
2022-12-20T08:53:19.580Z,1019.09
2022-12-20T08:54:19.755Z,1019.11
2022-12-20T08:55:24.556Z,1019.08
2022-12-20T08:56:21.104Z,1019.06
2022-12-20T08:57:20.284Z,1019.08
2022-12-20T08:58:20.442Z,1018.99
2022-12-20T08:59:20.606Z,1019.09
2022-12-20T09:00:20.777Z,1019.05
2022-12-20T09:01:21.089Z,1019.00
2022-12-20T09:02:21.320Z,1018.99
2022-12-20T09:03:21.360Z,1019.00
2022-12-20T09:04:21.456Z,1018.97
2022-12-20T09:05:21.626Z,1019.00
2022-12-20T09:06:21.785Z,1018.99
2022-12-20T09:07:21.987Z,1018.96
2022-12-20T09:08:22.126Z,1018.89
2022-12-20T09:09:22.292Z,1018.97
2022-12-20T09:10:22.495Z,1019.05
2022-12-20T09:11:22.650Z,1019.09
2022-12-20T09:12:22.836Z,1018.99
2022-12-20T09:13:23.011Z,1019.01
2022-12-20T09:14:23.171Z,1018.96
2022-12-20T09:15:23.318Z,1019.00
2022-12-20T09:16:23.553Z,1019.02
2022-12-20T09:17:23.690Z,1019.00
2022-12-20T09:18:23.865Z,1019.02
2022-12-20T09:19:24.006Z,1018.98
2022-12-20T09:20:24.199Z,1018.98
2022-12-20T09:21:24.364Z,1018.88
2022-12-20T09:22:24.517Z,1018.88
2022-12-20T09:23:24.692Z,1018.86
2022-12-20T09:24:24.867Z,1018.93
2022-12-20T09:25:25.056Z,1018.91
2022-12-20T09:26:25.237Z,1019.03
2022-12-20T09:27:25.405Z,1019.00
2022-12-20T09:28:25.552Z,1019.01
2022-12-20T09:29:30.858Z,1019.00
2022-12-20T09:30:26.898Z,1018.95
2022-12-20T09:31:26.191Z,1018.90
2022-12-20T09:32:26.274Z,1018.87
2022-12-20T09:33:26.404Z,1018.91
2022-12-20T09:34:26.596Z,1018.90
2022-12-20T09:35:26.798Z,1018.87
2022-12-20T09:36:26.983Z,1018.90
2022-12-20T09:37:27.146Z,1018.84
2022-12-20T09:38:27.326Z,1018.86
2022-12-20T09:39:27.542Z,1018.87
2022-12-20T09:40:27.689Z,1018.92
2022-12-20T09:41:27.846Z,1018.94
2022-12-20T09:42:28.065Z,1018.94
2022-12-20T09:43:28.195Z,1018.94
2022-12-20T09:44:28.384Z,1018.97
2022-12-20T09:45:28.554Z,1018.90
2022-12-20T09:46:28.771Z,1018.87
2022-12-20T09:47:28.907Z,1018.92
2022-12-20T09:48:29.036Z,1018.92
2022-12-20T09:49:29.200Z,1018.93
2022-12-20T09:50:29.395Z,1018.84
2022-12-20T09:51:29.548Z,1018.84
2022-12-20T09:52:29.769Z,1018.86
2022-12-20T09:53:29.932Z,1018.87
2022-12-20T09:54:30.067Z,1018.92
2022-12-20T09:55:30.283Z,1018.89
2022-12-20T09:56:30.416Z,1018.97
2022-12-20T09:57:30.631Z,1018.92
2022-12-20T09:58:30.766Z,1018.92
2022-12-20T09:59:35.487Z,1018.92
2022-12-20T10:00:32.155Z,1018.92
2022-12-20T10:01:37.979Z,1018.87
2022-12-20T10:02:58.424Z,1018.89
2022-12-20T10:03:32.916Z,1018.94
2022-12-20T10:04:32.006Z,1018.90
2022-12-20T10:05:38.708Z,1018.89
2022-12-20T10:06:33.184Z,1018.87
2022-12-20T10:07:32.369Z,1018.84
2022-12-20T10:08:32.531Z,1018.93
2022-12-20T10:09:32.667Z,1018.92
2022-12-20T10:10:32.887Z,1018.94
2022-12-20T10:11:39.520Z,1018.94
2022-12-20T10:12:34.196Z,1018.95
2022-12-20T10:13:33.509Z,1018.93
2022-12-20T10:14:33.524Z,1018.91
2022-12-20T10:15:33.784Z,1018.88
2022-12-20T10:16:33.958Z,1018.90
2022-12-20T10:17:34.061Z,1018.79
2022-12-20T10:18:34.246Z,1018.76
2022-12-20T10:19:34.428Z,1018.76
2022-12-20T10:20:34.625Z,1018.78
2022-12-20T10:21:34.759Z,1018.76
2022-12-20T10:22:34.925Z,1018.76
2022-12-20T10:23:35.154Z,1018.81
2022-12-20T10:24:35.300Z,1018.68
2022-12-20T10:25:35.537Z,1018.67
2022-12-20T10:26:35.701Z,1018.62
2022-12-20T10:27:35.787Z,1018.57
2022-12-20T10:28:35.984Z,1018.56
2022-12-20T10:29:36.118Z,1018.55
2022-12-20T10:30:36.295Z,1018.53
2022-12-20T10:31:36.555Z,1018.45
2022-12-20T10:32:36.699Z,1018.48
2022-12-20T10:33:36.858Z,1018.41
2022-12-20T10:34:41.030Z,1018.37
2022-12-20T10:35:38.162Z,1018.42
2022-12-20T10:36:37.314Z,1018.32
2022-12-20T10:37:39.208Z,1018.32
2022-12-20T10:38:37.705Z,1018.29
2022-12-20T10:39:37.861Z,1018.37
2022-12-20T10:41:10.089Z,1018.31
2022-12-20T10:41:39.198Z,1018.26
2022-12-20T10:42:38.369Z,1018.23
2022-12-20T10:43:38.543Z,1018.22
2022-12-20T10:44:38.732Z,1018.16
2022-12-20T10:45:38.876Z,1018.08
2022-12-20T10:46:39.129Z,1018.13
2022-12-20T10:47:39.217Z,1018.05
2022-12-20T10:48:39.391Z,1018.05
2022-12-20T10:49:39.541Z,1018.04
2022-12-20T10:50:39.690Z,1018.04
2022-12-20T10:51:39.839Z,1018.03
2022-12-20T10:52:39.983Z,1018.09
2022-12-20T10:53:40.186Z,1018.09
2022-12-20T10:54:40.350Z,1018.09
2022-12-20T10:55:40.537Z,1018.05
2022-12-20T10:56:40.715Z,1018.01
2022-12-20T10:57:40.861Z,1017.97
2022-12-20T10:58:41.065Z,1017.89
2022-12-20T10:59:41.210Z,1017.83
2022-12-20T11:00:41.413Z,1017.84
2022-12-20T11:01:41.660Z,1017.76
2022-12-20T11:02:42.981Z,1017.73
2022-12-20T11:03:42.577Z,1017.73
2022-12-20T11:04:42.108Z,1017.67
2022-12-20T11:05:42.266Z,1017.67
2022-12-20T11:06:42.451Z,1017.61
2022-12-20T11:07:50.415Z,1017.63
2022-12-20T11:08:51.506Z,1017.63
2022-12-20T11:09:43.963Z,1017.64
2022-12-20T11:10:43.157Z,1017.72
2022-12-20T11:11:43.302Z,1017.71
2022-12-20T11:12:43.516Z,1017.68
2022-12-20T11:13:43.684Z,1017.61
2022-12-20T11:14:43.870Z,1017.59
2022-12-20T11:15:44.085Z,1017.55
2022-12-20T11:16:44.352Z,1017.65
2022-12-20T11:17:44.399Z,1017.63
2022-12-20T11:18:44.605Z,1017.60
2022-12-20T11:19:44.794Z,1017.54
2022-12-20T11:20:44.963Z,1017.58
2022-12-20T11:21:45.136Z,1017.61
2022-12-20T11:22:45.270Z,1017.64
2022-12-20T11:23:45.473Z,1017.63
2022-12-20T11:24:45.612Z,1017.61
2022-12-20T11:25:45.829Z,1017.57
2022-12-20T11:26:45.997Z,1017.54
2022-12-20T11:27:46.154Z,1017.49
2022-12-20T11:28:46.343Z,1017.50
2022-12-20T11:29:46.498Z,1017.36
2022-12-20T11:30:46.650Z,1017.42
2022-12-20T11:31:46.834Z,1017.44
2022-12-20T11:32:49.146Z,1017.40
2022-12-20T11:33:47.196Z,1017.36
2022-12-20T11:34:47.332Z,1017.39
2022-12-20T11:35:47.512Z,1017.34
2022-12-20T11:36:47.671Z,1017.37
2022-12-20T11:37:47.805Z,1017.34
2022-12-20T11:38:47.999Z,1017.32
2022-12-20T11:39:48.226Z,1017.40
2022-12-20T11:40:48.369Z,1017.46
2022-12-20T11:41:48.512Z,1017.42
2022-12-20T11:42:48.703Z,1017.47
2022-12-20T11:44:23.390Z,1017.37
2022-12-20T11:44:58.877Z,1017.30
2022-12-20T11:45:50.244Z,1017.36
2022-12-20T11:46:49.473Z,1017.39
2022-12-20T11:47:49.598Z,1017.37
2022-12-20T11:48:49.789Z,1017.34
2022-12-20T11:49:49.940Z,1017.32
2022-12-20T11:50:50.073Z,1017.37
2022-12-20T11:51:50.285Z,1017.36
2022-12-20T11:52:50.415Z,1017.29
2022-12-20T11:53:50.619Z,1017.31
2022-12-20T11:54:50.765Z,1017.27
2022-12-20T11:55:50.961Z,1017.30
2022-12-20T11:56:51.119Z,1017.27
2022-12-20T11:58:17.061Z,1017.27
2022-12-20T11:58:52.467Z,1017.29
2022-12-20T11:59:51.638Z,1017.25
2022-12-20T12:00:51.784Z,1017.29
2022-12-20T12:01:52.064Z,1017.27
2022-12-20T12:02:58.145Z,1017.29
2022-12-20T12:03:53.310Z,1017.19
2022-12-20T12:04:52.488Z,1017.23
2022-12-20T12:05:52.632Z,1017.22
2022-12-20T12:06:52.821Z,1017.21
2022-12-20T12:07:53.013Z,1017.17